This is the latest recevied weather packets stored in our database for station/object IZ1BLA-10. If no packets are shown the sender has not sent any weather packets the latest 10 day(s).
| Time | Temp. | Humidity | Pressure | Rain* | Wind** | Luminosity | Snow |
|---|---|---|---|---|---|---|---|
| 1777907353 | 19.44° C | 44% | 1015 hPa | - | - | - | - |
| 1777906753 | 18.89° C | 45% | 1015.2 hPa | - | - | - | - |
| 1777906153 | 19.44° C | 44% | 1015.1 hPa | - | - | - | - |
| 1777905553 | 19.44° C | 45% | 1015.1 hPa | - | - | - | - |
| 1777904953 | 17.78° C | 46% | 1015.4 hPa | - | - | - | - |
| 1777904353 | 19.44° C | 45% | 1015.2 hPa | - | - | - | - |
| 1777903753 | 19.44° C | 44% | 1015.2 hPa | - | - | - | - |
| 1777903153 | 20° C | 45% | 1015.2 hPa | - | - | - | - |
| 1777902553 | 19.44° C | 45% | 1015.4 hPa | - | - | - | - |
| 1777901953 | 18.89° C | 45% | 1015.6 hPa | - | - | - | - |
| 1777901352 | 19.44° C | 43% | 1015.6 hPa | - | - | - | - |
| 1777900753 | 20° C | 43% | 1015.5 hPa | - | - | - | - |
| 1777900153 | 19.44° C | 44% | 1015.7 hPa | - | - | - | - |
| 1777899553 | 18.89° C | 44% | 1016 hPa | - | - | - | - |
| 1777898953 | 18.89° C | 44% | 1016.1 hPa | - | - | - | - |
| 1777898353 | 18.89° C | 44% | 1016.1 hPa | - | - | - | - |
| 1777897753 | 20° C | 42% | 1015.9 hPa | - | - | - | - |
| 1777897153 | 19.44° C | 44% | 1015.9 hPa | - | - | - | - |
| 1777896552 | 17.78° C | 46% | 1016.5 hPa | - | - | - | - |
| 1777895952 | 17.22° C | 48% | 1016.9 hPa | - | - | - | - |
| 1777895352 | 17.22° C | 48% | 1017 hPa | - | - | - | - |
| 1777894753 | 17.78° C | 47% | 1016.7 hPa | - | - | - | - |
| 1777894152 | 17.78° C | 47% | 1016.8 hPa | - | - | - | - |
| 1777893552 | 17.78° C | 45% | 1016.7 hPa | - | - | - | - |
| 1777892953 | 18.33° C | 43% | 1016.8 hPa | - | - | - | - |
* Rain since midnight (hover to see other rain measurements)
** Current wind speed in m/s (hover to see current wind gust speed)